KADM/ADM METAR and TAF weather

Enter ICAO airport designator
Station Type Date Time Source
KADM METAR 2019/04/18 19:55 UTC NOAA

KADM 181955Z 35022G28KT 10SM CLR 22/06 A2983


Station Type Date Time Source
KADM Decoded METAR 2019/04/18 19:55 UTC NOAA

Ardmore, Ardmore Municipal Airport, OK, United States (KADM) 34-18-11N 097-01-10W
Apr 18, 2019 - 03:55 PM EDT / 2019.04.18 1955 UTC
Wind: from the N (350 degrees) at 25 MPH (22 KT) gusting to 32 MPH (28 KT):0
Visibility: 10 mile(s):0
Sky conditions: clear
Temperature: 71 F (22 C)
Dew Point: 42 F (6 C)
Relative Humidity: 35%
Pressure (altimeter): 29.83 in. Hg (1010 hPa)
ob: KADM 181955Z 35022G28KT 10SM CLR 22/06 A2983
cycle: 20

Station Type Date Time Source
KADM TAF UTC NOAA

Error!

Example: see airport list